Ferdinand, Idaho
Current Conditions -  °F | °C
As of 3:55 PM on Sunday 23 Nov 2014 (Local Time) from KGIC Reporting Station
Overcast Overcast  
Wind Chill: 28°   Ceiling: 5500
Heat Index: 39°   Visibility: 10mi
Dew Point: 27°   Wind: 28mph
Humidity: 61%   Direction: 210°SSW
Pressure: 30.06"   Gusts: 37mph
Location:  46.15°N, 116.39°W
Report Text: KGIC 232355Z AUTO 21024G32KT 10SM BKN055 OVC065 04/M03 A3006 RMK AO1 T00401030 10041 20003
Loading
Personal Weather Stations






























Interactive Weather Map New forecast layout! Learn more

10-Day Weather Forecast

Advertisements
Track Severe Weather on mobile